sensor_id;sensor_type;location;lat;lon;timestamp;P1;durP1;ratioP1;P2;durP2;ratioP2
60999;SDS011;46879;45.658;11.814;2023-03-14T00:05:00;6.53;;;3.00;;
60999;SDS011;46879;45.658;11.814;2023-03-14T00:10:06;5.25;;;2.70;;
60999;SDS011;46879;45.658;11.814;2023-03-14T00:15:11;10.50;;;2.78;;
60999;SDS011;46879;45.658;11.814;2023-03-14T00:20:12;5.15;;;2.40;;
60999;SDS011;46879;45.658;11.814;2023-03-14T00:25:13;4.75;;;2.30;;
60999;SDS011;46879;45.658;11.814;2023-03-14T00:30:13;3.85;;;2.42;;
60999;SDS011;46879;45.658;11.814;2023-03-14T00:35:14;4.57;;;2.35;;
60999;SDS011;46879;45.658;11.814;2023-03-14T00:40:15;4.10;;;2.72;;
60999;SDS011;46879;45.658;11.814;2023-03-14T00:45:16;2.70;;;2.20;;
60999;SDS011;46879;45.658;11.814;2023-03-14T00:50:16;5.55;;;2.63;;
60999;SDS011;46879;45.658;11.814;2023-03-14T00:55:17;5.28;;;2.83;;
60999;SDS011;46879;45.658;11.814;2023-03-14T01:00:18;10.70;;;2.83;;
60999;SDS011;46879;45.658;11.814;2023-03-14T01:05:18;5.45;;;2.40;;
60999;SDS011;46879;45.658;11.814;2023-03-14T01:10:19;4.32;;;2.85;;
60999;SDS011;46879;45.658;11.814;2023-03-14T01:15:19;3.53;;;2.40;;
60999;SDS011;46879;45.658;11.814;2023-03-14T01:20:20;5.00;;;2.53;;
60999;SDS011;46879;45.658;11.814;2023-03-14T01:25:21;5.82;;;2.47;;
60999;SDS011;46879;45.658;11.814;2023-03-14T01:30:21;3.72;;;2.50;;
60999;SDS011;46879;45.658;11.814;2023-03-14T01:35:22;6.63;;;2.60;;
60999;SDS011;46879;45.658;11.814;2023-03-14T01:40:23;5.03;;;2.28;;
60999;SDS011;46879;45.658;11.814;2023-03-14T01:56:36;11.95;;;2.95;;
60999;SDS011;46879;45.658;11.814;2023-03-14T02:01:40;5.60;;;2.65;;
60999;SDS011;46879;45.658;11.814;2023-03-14T02:06:46;4.30;;;2.75;;
60999;SDS011;46879;45.658;11.814;2023-03-14T02:12:14;3.10;;;2.28;;
60999;SDS011;46879;45.658;11.814;2023-03-14T02:17:17;3.67;;;2.40;;
60999;SDS011;46879;45.658;11.814;2023-03-14T02:22:19;3.47;;;2.33;;
60999;SDS011;46879;45.658;11.814;2023-03-14T02:27:20;4.78;;;2.30;;
60999;SDS011;46879;45.658;11.814;2023-03-14T02:32:21;2.90;;;2.00;;
60999;SDS011;46879;45.658;11.814;2023-03-14T02:37:25;2.65;;;2.35;;
60999;SDS011;46879;45.658;11.814;2023-03-14T02:42:49;4.55;;;2.40;;
60999;SDS011;46879;45.658;11.814;2023-03-14T02:47:53;4.78;;;2.00;;
60999;SDS011;46879;45.658;11.814;2023-03-14T02:52:59;4.95;;;2.40;;
60999;SDS011;46879;45.658;11.814;2023-03-14T02:58:00;4.55;;;2.53;;
60999;SDS011;46879;45.658;11.814;2023-03-14T03:03:00;4.95;;;2.20;;
60999;SDS011;46879;45.658;11.814;2023-03-14T03:08:01;2.97;;;2.20;;
60999;SDS011;46879;45.658;11.814;2023-03-14T03:13:02;3.67;;;2.38;;
60999;SDS011;46879;45.658;11.814;2023-03-14T03:18:03;4.05;;;2.47;;
60999;SDS011;46879;45.658;11.814;2023-03-14T03:23:04;6.28;;;2.08;;
60999;SDS011;46879;45.658;11.814;2023-03-14T03:28:05;4.88;;;2.75;;
60999;SDS011;46879;45.658;11.814;2023-03-14T03:33:08;3.30;;;2.15;;
60999;SDS011;46879;45.658;11.814;2023-03-14T03:38:09;4.80;;;2.63;;
60999;SDS011;46879;45.658;11.814;2023-03-14T03:43:11;2.50;;;2.13;;
60999;SDS011;46879;45.658;11.814;2023-03-14T03:48:12;4.15;;;2.25;;
60999;SDS011;46879;45.658;11.814;2023-03-14T03:53:12;10.82;;;2.70;;
60999;SDS011;46879;45.658;11.814;2023-03-14T03:58:13;4.25;;;2.40;;
60999;SDS011;46879;45.658;11.814;2023-03-14T04:03:14;3.28;;;2.05;;
60999;SDS011;46879;45.658;11.814;2023-03-14T04:08:14;4.15;;;2.50;;
60999;SDS011;46879;45.658;11.814;2023-03-14T04:13:15;3.03;;;2.45;;
60999;SDS011;46879;45.658;11.814;2023-03-14T04:18:15;3.25;;;2.55;;
60999;SDS011;46879;45.658;11.814;2023-03-14T04:23:16;3.63;;;2.40;;
60999;SDS011;46879;45.658;11.814;2023-03-14T04:28:17;3.47;;;2.40;;
60999;SDS011;46879;45.658;11.814;2023-03-14T04:33:17;2.65;;;1.83;;
60999;SDS011;46879;45.658;11.814;2023-03-14T04:38:18;3.53;;;2.45;;
60999;SDS011;46879;45.658;11.814;2023-03-14T04:43:18;2.97;;;2.20;;
60999;SDS011;46879;45.658;11.814;2023-03-14T04:48:19;3.10;;;2.22;;
60999;SDS011;46879;45.658;11.814;2023-03-14T04:53:20;3.28;;;2.10;;
60999;SDS011;46879;45.658;11.814;2023-03-14T04:58:20;3.00;;;2.28;;
60999;SDS011;46879;45.658;11.814;2023-03-14T05:03:23;2.42;;;2.08;;
60999;SDS011;46879;45.658;11.814;2023-03-14T05:08:23;3.20;;;2.20;;
60999;SDS011;46879;45.658;11.814;2023-03-14T05:13:24;3.38;;;2.13;;
60999;SDS011;46879;45.658;11.814;2023-03-14T05:18:25;3.75;;;2.72;;
60999;SDS011;46879;45.658;11.814;2023-03-14T05:23:25;3.78;;;2.60;;
60999;SDS011;46879;45.658;11.814;2023-03-14T05:28:26;3.78;;;2.28;;
60999;SDS011;46879;45.658;11.814;2023-03-14T05:33:26;4.10;;;2.30;;
60999;SDS011;46879;45.658;11.814;2023-03-14T05:38:27;3.10;;;2.17;;
60999;SDS011;46879;45.658;11.814;2023-03-14T05:43:27;3.70;;;2.20;;
60999;SDS011;46879;45.658;11.814;2023-03-14T05:48:28;3.78;;;2.40;;
60999;SDS011;46879;45.658;11.814;2023-03-14T05:53:29;3.70;;;2.20;;
60999;SDS011;46879;45.658;11.814;2023-03-14T05:58:30;3.08;;;2.15;;
60999;SDS011;46879;45.658;11.814;2023-03-14T06:03:31;2.80;;;2.53;;
60999;SDS011;46879;45.658;11.814;2023-03-14T06:08:32;5.53;;;2.42;;
60999;SDS011;46879;45.658;11.814;2023-03-14T06:13:34;2.83;;;2.20;;
60999;SDS011;46879;45.658;11.814;2023-03-14T06:18:34;4.45;;;2.30;;
60999;SDS011;46879;45.658;11.814;2023-03-14T06:23:35;4.53;;;2.45;;
60999;SDS011;46879;45.658;11.814;2023-03-14T06:28:36;3.63;;;2.25;;
60999;SDS011;46879;45.658;11.814;2023-03-14T06:33:36;7.95;;;3.13;;
60999;SDS011;46879;45.658;11.814;2023-03-14T06:38:37;17.27;;;2.55;;
60999;SDS011;46879;45.658;11.814;2023-03-14T06:43:37;10.68;;;2.92;;
60999;SDS011;46879;45.658;11.814;2023-03-14T06:48:38;13.02;;;2.95;;
60999;SDS011;46879;45.658;11.814;2023-03-14T06:53:38;22.60;;;3.85;;
60999;SDS011;46879;45.658;11.814;2023-03-14T06:58:39;6.53;;;2.75;;
60999;SDS011;46879;45.658;11.814;2023-03-14T07:03:40;5.22;;;3.35;;
60999;SDS011;46879;45.658;11.814;2023-03-14T07:08:40;13.13;;;4.18;;
60999;SDS011;46879;45.658;11.814;2023-03-14T07:13:41;10.50;;;3.78;;
60999;SDS011;46879;45.658;11.814;2023-03-14T07:18:42;19.25;;;4.20;;
60999;SDS011;46879;45.658;11.814;2023-03-14T07:23:43;7.13;;;3.75;;
60999;SDS011;46879;45.658;11.814;2023-03-14T07:28:43;9.85;;;3.72;;
60999;SDS011;46879;45.658;11.814;2023-03-14T07:33:44;14.77;;;3.72;;
60999;SDS011;46879;45.658;11.814;2023-03-14T07:38:44;10.98;;;3.20;;
60999;SDS011;46879;45.658;11.814;2023-03-14T07:43:45;4.97;;;3.00;;
60999;SDS011;46879;45.658;11.814;2023-03-14T07:48:46;10.73;;;3.40;;
60999;SDS011;46879;45.658;11.814;2023-03-14T07:53:46;7.40;;;2.97;;
60999;SDS011;46879;45.658;11.814;2023-03-14T07:58:47;5.85;;;3.08;;
60999;SDS011;46879;45.658;11.814;2023-03-14T08:03:47;5.78;;;3.20;;
60999;SDS011;46879;45.658;11.814;2023-03-14T08:08:48;9.40;;;3.13;;
60999;SDS011;46879;45.658;11.814;2023-03-14T08:13:49;4.22;;;3.00;;
60999;SDS011;46879;45.658;11.814;2023-03-14T08:18:50;6.93;;;3.17;;
60999;SDS011;46879;45.658;11.814;2023-03-14T08:23:51;4.15;;;2.70;;
60999;SDS011;46879;45.658;11.814;2023-03-14T08:28:51;4.78;;;3.10;;
60999;SDS011;46879;45.658;11.814;2023-03-14T08:33:52;10.35;;;3.50;;
60999;SDS011;46879;45.658;11.814;2023-03-14T08:38:53;7.20;;;2.88;;
60999;SDS011;46879;45.658;11.814;2023-03-14T08:43:54;8.82;;;3.47;;
60999;SDS011;46879;45.658;11.814;2023-03-14T08:48:54;8.32;;;3.03;;
60999;SDS011;46879;45.658;11.814;2023-03-14T08:53:55;10.15;;;3.40;;
60999;SDS011;46879;45.658;11.814;2023-03-14T08:58:56;9.25;;;3.28;;
60999;SDS011;46879;45.658;11.814;2023-03-14T09:03:56;3.72;;;2.80;;
60999;SDS011;46879;45.658;11.814;2023-03-14T09:08:57;6.63;;;2.80;;
60999;SDS011;46879;45.658;11.814;2023-03-14T09:13:58;4.75;;;3.20;;
60999;SDS011;46879;45.658;11.814;2023-03-14T09:18:58;4.72;;;2.65;;
60999;SDS011;46879;45.658;11.814;2023-03-14T09:23:59;6.38;;;3.00;;
60999;SDS011;46879;45.658;11.814;2023-03-14T09:29:00;5.65;;;2.70;;
60999;SDS011;46879;45.658;11.814;2023-03-14T09:34:00;5.63;;;3.08;;
60999;SDS011;46879;45.658;11.814;2023-03-14T09:39:01;9.48;;;3.15;;
60999;SDS011;46879;45.658;11.814;2023-03-14T09:44:13;3.10;;;2.72;;
60999;SDS011;46879;45.658;11.814;2023-03-14T09:49:20;9.00;;;2.95;;
60999;SDS011;46879;45.658;11.814;2023-03-14T09:59:53;5.05;;;2.92;;
60999;SDS011;46879;45.658;11.814;2023-03-14T10:04:59;4.95;;;2.83;;
60999;SDS011;46879;45.658;11.814;2023-03-14T10:10:08;8.32;;;3.20;;
60999;SDS011;46879;45.658;11.814;2023-03-14T10:15:22;6.47;;;2.50;;
60999;SDS011;46879;45.658;11.814;2023-03-14T10:20:35;3.90;;;2.92;;
60999;SDS011;46879;45.658;11.814;2023-03-14T10:25:45;3.92;;;2.58;;
60999;SDS011;46879;45.658;11.814;2023-03-14T10:31:00;3.75;;;2.70;;
60999;SDS011;46879;45.658;11.814;2023-03-14T10:41:14;2.80;;;2.50;;
60999;SDS011;46879;45.658;11.814;2023-03-14T10:46:26;6.68;;;2.88;;
60999;SDS011;46879;45.658;11.814;2023-03-14T10:51:32;3.90;;;2.58;;
60999;SDS011;46879;45.658;11.814;2023-03-14T10:56:34;3.45;;;2.50;;
60999;SDS011;46879;45.658;11.814;2023-03-14T11:07:16;9.10;;;3.05;;
60999;SDS011;46879;45.658;11.814;2023-03-14T11:12:46;4.30;;;2.53;;
60999;SDS011;46879;45.658;11.814;2023-03-14T11:28:32;11.05;;;3.10;;
60999;SDS011;46879;45.658;11.814;2023-03-14T11:33:39;8.48;;;3.00;;
60999;SDS011;46879;45.658;11.814;2023-03-14T11:39:00;4.25;;;3.00;;
60999;SDS011;46879;45.658;11.814;2023-03-14T11:44:01;4.05;;;2.42;;
60999;SDS011;46879;45.658;11.814;2023-03-14T11:49:25;3.90;;;2.58;;
60999;SDS011;46879;45.658;11.814;2023-03-14T12:10:28;4.32;;;2.50;;
60999;SDS011;46879;45.658;11.814;2023-03-14T12:15:29;5.53;;;2.80;;
60999;SDS011;46879;45.658;11.814;2023-03-14T12:20:29;4.03;;;2.78;;
60999;SDS011;46879;45.658;11.814;2023-03-14T12:25:30;11.65;;;3.28;;
60999;SDS011;46879;45.658;11.814;2023-03-14T12:30:34;10.48;;;3.00;;
60999;SDS011;46879;45.658;11.814;2023-03-14T12:35:48;5.30;;;2.70;;
60999;SDS011;46879;45.658;11.814;2023-03-14T12:46:25;5.30;;;2.35;;
60999;SDS011;46879;45.658;11.814;2023-03-14T12:51:28;7.15;;;2.75;;
60999;SDS011;46879;45.658;11.814;2023-03-14T13:18:12;8.35;;;2.88;;
60999;SDS011;46879;45.658;11.814;2023-03-14T13:23:23;6.85;;;2.63;;
60999;SDS011;46879;45.658;11.814;2023-03-14T13:28:29;2.88;;;2.17;;
60999;SDS011;46879;45.658;11.814;2023-03-14T13:33:31;4.72;;;2.38;;
60999;SDS011;46879;45.658;11.814;2023-03-14T13:38:34;5.18;;;2.47;;
60999;SDS011;46879;45.658;11.814;2023-03-14T13:43:36;3.50;;;2.50;;
60999;SDS011;46879;45.658;11.814;2023-03-14T13:48:51;2.47;;;2.10;;
60999;SDS011;46879;45.658;11.814;2023-03-14T13:53:58;7.57;;;2.90;;
60999;SDS011;46879;45.658;11.814;2023-03-14T13:59:00;3.03;;;2.47;;
60999;SDS011;46879;45.658;11.814;2023-03-14T14:04:07;9.77;;;2.38;;
60999;SDS011;46879;45.658;11.814;2023-03-14T14:09:16;4.03;;;2.78;;
60999;SDS011;46879;45.658;11.814;2023-03-14T14:14:25;7.88;;;2.85;;
60999;SDS011;46879;45.658;11.814;2023-03-14T14:19:33;6.15;;;2.20;;
60999;SDS011;46879;45.658;11.814;2023-03-14T14:24:36;3.42;;;2.17;;
60999;SDS011;46879;45.658;11.814;2023-03-14T14:29:37;3.58;;;2.55;;
60999;SDS011;46879;45.658;11.814;2023-03-14T14:34:39;5.45;;;2.38;;
60999;SDS011;46879;45.658;11.814;2023-03-14T14:39:52;5.53;;;2.20;;
60999;SDS011;46879;45.658;11.814;2023-03-14T14:44:58;4.55;;;2.30;;
60999;SDS011;46879;45.658;11.814;2023-03-14T14:50:20;2.45;;;2.20;;
60999;SDS011;46879;45.658;11.814;2023-03-14T14:55:32;4.28;;;2.50;;
60999;SDS011;46879;45.658;11.814;2023-03-14T15:00:49;6.25;;;2.35;;
60999;SDS011;46879;45.658;11.814;2023-03-14T15:05:53;4.60;;;2.70;;
60999;SDS011;46879;45.658;11.814;2023-03-14T15:10:55;4.10;;;2.42;;
60999;SDS011;46879;45.658;11.814;2023-03-14T15:15:57;4.60;;;2.65;;
60999;SDS011;46879;45.658;11.814;2023-03-14T15:20:58;8.45;;;3.10;;
60999;SDS011;46879;45.658;11.814;2023-03-14T15:25:58;4.25;;;2.50;;
60999;SDS011;46879;45.658;11.814;2023-03-14T15:30:59;3.95;;;2.28;;
60999;SDS011;46879;45.658;11.814;2023-03-14T15:35:59;3.28;;;2.00;;
60999;SDS011;46879;45.658;11.814;2023-03-14T15:41:00;9.07;;;2.58;;
60999;SDS011;46879;45.658;11.814;2023-03-14T15:46:01;4.50;;;2.15;;
60999;SDS011;46879;45.658;11.814;2023-03-14T15:51:02;4.88;;;2.40;;
60999;SDS011;46879;45.658;11.814;2023-03-14T15:56:03;5.15;;;2.10;;
60999;SDS011;46879;45.658;11.814;2023-03-14T16:01:11;7.60;;;2.28;;
60999;SDS011;46879;45.658;11.814;2023-03-14T16:06:12;6.55;;;2.30;;
60999;SDS011;46879;45.658;11.814;2023-03-14T16:11:14;4.32;;;2.05;;
60999;SDS011;46879;45.658;11.814;2023-03-14T16:16:17;7.93;;;2.10;;
60999;SDS011;46879;45.658;11.814;2023-03-14T16:21:19;5.25;;;2.40;;
60999;SDS011;46879;45.658;11.814;2023-03-14T16:26:20;4.85;;;1.90;;
60999;SDS011;46879;45.658;11.814;2023-03-14T16:31:20;3.20;;;1.98;;
60999;SDS011;46879;45.658;11.814;2023-03-14T16:36:22;3.03;;;2.00;;
60999;SDS011;46879;45.658;11.814;2023-03-14T16:41:23;4.20;;;2.20;;
60999;SDS011;46879;45.658;11.814;2023-03-14T16:46:24;5.38;;;2.10;;
60999;SDS011;46879;45.658;11.814;2023-03-14T16:51:27;5.05;;;2.50;;
60999;SDS011;46879;45.658;11.814;2023-03-14T16:56:27;3.85;;;2.08;;
60999;SDS011;46879;45.658;11.814;2023-03-14T17:01:28;5.38;;;2.33;;
60999;SDS011;46879;45.658;11.814;2023-03-14T17:06:29;2.83;;;1.92;;
60999;SDS011;46879;45.658;11.814;2023-03-14T17:11:30;6.07;;;1.75;;
60999;SDS011;46879;45.658;11.814;2023-03-14T17:16:32;3.13;;;1.90;;
60999;SDS011;46879;45.658;11.814;2023-03-14T17:21:33;3.72;;;2.30;;
60999;SDS011;46879;45.658;11.814;2023-03-14T17:26:33;6.78;;;2.55;;
60999;SDS011;46879;45.658;11.814;2023-03-14T17:31:34;4.63;;;2.22;;
60999;SDS011;46879;45.658;11.814;2023-03-14T17:36:34;6.72;;;2.30;;
60999;SDS011;46879;45.658;11.814;2023-03-14T17:41:35;7.80;;;2.20;;
60999;SDS011;46879;45.658;11.814;2023-03-14T17:46:35;10.15;;;2.67;;
60999;SDS011;46879;45.658;11.814;2023-03-14T17:51:36;10.57;;;2.40;;
60999;SDS011;46879;45.658;11.814;2023-03-14T17:56:37;15.00;;;2.58;;
60999;SDS011;46879;45.658;11.814;2023-03-14T18:01:37;9.07;;;2.53;;
60999;SDS011;46879;45.658;11.814;2023-03-14T18:06:39;6.78;;;2.30;;
60999;SDS011;46879;45.658;11.814;2023-03-14T18:11:43;8.05;;;2.55;;
60999;SDS011;46879;45.658;11.814;2023-03-14T18:16:44;5.97;;;2.15;;
60999;SDS011;46879;45.658;11.814;2023-03-14T18:21:47;11.63;;;2.35;;
60999;SDS011;46879;45.658;11.814;2023-03-14T18:26:50;5.25;;;1.98;;
60999;SDS011;46879;45.658;11.814;2023-03-14T18:31:51;9.48;;;2.63;;
60999;SDS011;46879;45.658;11.814;2023-03-14T18:36:51;9.63;;;2.30;;
60999;SDS011;46879;45.658;11.814;2023-03-14T18:41:52;5.95;;;2.25;;
60999;SDS011;46879;45.658;11.814;2023-03-14T18:46:53;10.05;;;2.42;;
60999;SDS011;46879;45.658;11.814;2023-03-14T18:51:53;10.05;;;2.60;;
60999;SDS011;46879;45.658;11.814;2023-03-14T18:56:54;13.25;;;2.70;;
60999;SDS011;46879;45.658;11.814;2023-03-14T19:01:55;7.95;;;2.50;;
60999;SDS011;46879;45.658;11.814;2023-03-14T19:06:56;9.93;;;2.50;;
60999;SDS011;46879;45.658;11.814;2023-03-14T19:11:57;6.95;;;2.78;;
60999;SDS011;46879;45.658;11.814;2023-03-14T19:16:57;9.25;;;3.55;;
60999;SDS011;46879;45.658;11.814;2023-03-14T19:21:58;9.77;;;3.50;;
60999;SDS011;46879;45.658;11.814;2023-03-14T19:26:58;6.32;;;3.30;;
60999;SDS011;46879;45.658;11.814;2023-03-14T19:31:59;6.18;;;3.17;;
60999;SDS011;46879;45.658;11.814;2023-03-14T19:37:00;6.57;;;2.65;;
60999;SDS011;46879;45.658;11.814;2023-03-14T19:42:01;6.53;;;2.22;;
60999;SDS011;46879;45.658;11.814;2023-03-14T19:47:01;6.63;;;2.75;;
60999;SDS011;46879;45.658;11.814;2023-03-14T19:52:04;9.65;;;2.85;;
60999;SDS011;46879;45.658;11.814;2023-03-14T19:57:04;6.72;;;2.78;;
60999;SDS011;46879;45.658;11.814;2023-03-14T20:02:05;7.50;;;2.67;;
60999;SDS011;46879;45.658;11.814;2023-03-14T20:07:06;5.70;;;2.08;;
60999;SDS011;46879;45.658;11.814;2023-03-14T20:12:06;7.22;;;2.88;;
60999;SDS011;46879;45.658;11.814;2023-03-14T20:17:08;6.13;;;2.55;;
60999;SDS011;46879;45.658;11.814;2023-03-14T20:22:09;8.80;;;2.55;;
60999;SDS011;46879;45.658;11.814;2023-03-14T20:27:09;5.80;;;2.50;;
60999;SDS011;46879;45.658;11.814;2023-03-14T20:32:10;11.05;;;2.83;;
60999;SDS011;46879;45.658;11.814;2023-03-14T20:37:11;6.18;;;2.50;;
60999;SDS011;46879;45.658;11.814;2023-03-14T20:42:12;19.05;;;3.45;;
60999;SDS011;46879;45.658;11.814;2023-03-14T20:47:13;10.25;;;2.70;;
60999;SDS011;46879;45.658;11.814;2023-03-14T20:52:14;12.80;;;3.00;;
60999;SDS011;46879;45.658;11.814;2023-03-14T20:57:15;14.00;;;3.25;;
60999;SDS011;46879;45.658;11.814;2023-03-14T21:02:16;8.25;;;3.33;;
60999;SDS011;46879;45.658;11.814;2023-03-14T21:07:17;15.02;;;3.35;;
60999;SDS011;46879;45.658;11.814;2023-03-14T21:12:19;7.60;;;3.13;;
60999;SDS011;46879;45.658;11.814;2023-03-14T21:17:20;12.10;;;3.17;;
60999;SDS011;46879;45.658;11.814;2023-03-14T21:22:20;13.07;;;3.30;;
60999;SDS011;46879;45.658;11.814;2023-03-14T21:27:21;14.05;;;3.00;;
60999;SDS011;46879;45.658;11.814;2023-03-14T21:32:22;13.63;;;3.40;;
60999;SDS011;46879;45.658;11.814;2023-03-14T21:37:22;7.97;;;2.60;;
60999;SDS011;46879;45.658;11.814;2023-03-14T21:42:26;15.73;;;2.92;;
60999;SDS011;46879;45.658;11.814;2023-03-14T21:47:27;9.15;;;2.45;;
60999;SDS011;46879;45.658;11.814;2023-03-14T21:52:27;10.55;;;2.75;;
60999;SDS011;46879;45.658;11.814;2023-03-14T21:57:28;7.47;;;2.92;;
60999;SDS011;46879;45.658;11.814;2023-03-14T22:02:29;6.97;;;2.72;;
60999;SDS011;46879;45.658;11.814;2023-03-14T22:07:29;16.02;;;3.53;;
60999;SDS011;46879;45.658;11.814;2023-03-14T22:12:30;9.77;;;2.90;;
60999;SDS011;46879;45.658;11.814;2023-03-14T22:17:30;7.95;;;2.95;;
60999;SDS011;46879;45.658;11.814;2023-03-14T22:22:31;7.70;;;3.15;;
60999;SDS011;46879;45.658;11.814;2023-03-14T22:27:32;8.18;;;3.03;;
60999;SDS011;46879;45.658;11.814;2023-03-14T22:32:32;7.47;;;2.80;;
60999;SDS011;46879;45.658;11.814;2023-03-14T22:37:33;8.85;;;2.90;;
60999;SDS011;46879;45.658;11.814;2023-03-14T22:42:33;9.25;;;2.78;;
60999;SDS011;46879;45.658;11.814;2023-03-14T22:47:34;12.90;;;2.83;;
60999;SDS011;46879;45.658;11.814;2023-03-14T22:52:34;8.18;;;2.90;;
60999;SDS011;46879;45.658;11.814;2023-03-14T22:57:35;7.53;;;2.50;;
60999;SDS011;46879;45.658;11.814;2023-03-14T23:02:36;7.55;;;3.13;;
60999;SDS011;46879;45.658;11.814;2023-03-14T23:07:38;7.22;;;2.63;;
60999;SDS011;46879;45.658;11.814;2023-03-14T23:12:39;4.13;;;2.40;;
60999;SDS011;46879;45.658;11.814;2023-03-14T23:17:40;5.35;;;2.63;;
60999;SDS011;46879;45.658;11.814;2023-03-14T23:22:42;6.50;;;2.58;;
60999;SDS011;46879;45.658;11.814;2023-03-14T23:27:43;6.07;;;2.30;;
60999;SDS011;46879;45.658;11.814;2023-03-14T23:32:45;5.15;;;2.20;;
60999;SDS011;46879;45.658;11.814;2023-03-14T23:37:46;5.30;;;2.40;;
60999;SDS011;46879;45.658;11.814;2023-03-14T23:42:47;6.90;;;2.55;;
60999;SDS011;46879;45.658;11.814;2023-03-14T23:47:48;9.20;;;2.80;;
60999;SDS011;46879;45.658;11.814;2023-03-14T23:52:49;7.70;;;2.65;;
60999;SDS011;46879;45.658;11.814;2023-03-14T23:57:49;5.68;;;2.33;;
